createdAt,value
2022-12-09T00:01:52.411Z,56.55
2022-12-09T00:04:20.595Z,52.80
2022-12-09T00:06:49.045Z,56.63
2022-12-09T00:09:18.779Z,57.00
2022-12-09T00:11:47.175Z,65.10
2022-12-09T00:14:15.284Z,63.40
2022-12-09T00:16:43.603Z,67.20
2022-12-09T00:19:12.161Z,61.30
2022-12-09T00:21:40.529Z,60.38
2022-12-09T00:24:12.416Z,65.90
2022-12-09T00:26:42.526Z,58.03
2022-12-09T00:29:11.782Z,62.67
2022-12-09T00:31:41.085Z,68.97
2022-12-09T00:34:14.169Z,68.20
2022-12-09T00:36:42.394Z,66.75
2022-12-09T00:39:12.273Z,72.75
2022-12-09T00:41:42.024Z,71.95
2022-12-09T00:44:11.848Z,73.78
2022-12-09T00:46:40.050Z,76.15
2022-12-09T00:49:08.411Z,79.95
2022-12-09T00:51:36.465Z,77.55
2022-12-09T00:54:04.872Z,80.45
2022-12-09T00:56:33.264Z,77.72
2022-12-09T00:59:03.061Z,83.63
2022-12-09T01:01:31.291Z,82.18
2022-12-09T01:03:59.884Z,81.68
2022-12-09T01:06:28.309Z,87.95
2022-12-09T01:08:56.554Z,85.20
2022-12-09T01:11:27.380Z,82.40
2022-12-09T01:13:58.355Z,89.53
2022-12-09T01:16:31.165Z,88.00
2022-12-09T01:19:01.897Z,83.20
2022-12-09T01:21:31.591Z,96.03
2022-12-09T01:23:59.768Z,92.93
2022-12-09T01:26:28.080Z,89.00
2022-12-09T01:28:57.520Z,92.03
2022-12-09T01:31:28.048Z,92.18
2022-12-09T01:33:57.525Z,91.45
2022-12-09T01:36:28.502Z,95.32
2022-12-09T01:38:58.303Z,91.40
2022-12-09T01:41:27.641Z,90.75
2022-12-09T01:44:19.742Z,87.00
2022-12-09T01:46:58.358Z,91.68
2022-12-09T01:52:03.931Z,86.78
2022-12-09T01:54:33.092Z,85.55
2022-12-09T01:57:01.614Z,90.90
2022-12-09T01:59:31.449Z,101.65
2022-12-09T02:02:03.543Z,98.00
2022-12-09T02:04:38.261Z,94.30
2022-12-09T02:07:11.691Z,101.93
2022-12-09T02:09:41.531Z,108.82
2022-12-09T02:12:14.799Z,100.18
2022-12-09T02:14:47.195Z,96.93
2022-12-09T02:17:27.378Z,98.70
2022-12-09T02:20:06.148Z,101.47
2022-12-09T02:22:39.649Z,101.90
2022-12-09T02:25:18.349Z,103.60
2022-12-09T02:27:51.878Z,97.10
2022-12-09T02:30:22.124Z,99.82
2022-12-09T02:33:22.900Z,96.40
2022-12-09T02:35:58.023Z,109.45
2022-12-09T02:38:29.640Z,101.72
2022-12-09T02:41:02.045Z,99.97
2022-12-09T02:43:35.520Z,105.13
2022-12-09T02:46:06.211Z,100.20
2022-12-09T02:48:38.204Z,98.00
2022-12-09T02:53:40.835Z,100.35
2022-12-09T02:56:10.452Z,98.53
2022-12-09T02:58:38.705Z,93.43
2022-12-09T03:01:21.253Z,99.10
2022-12-09T03:03:53.740Z,100.63
2022-12-09T03:06:29.865Z,101.35
2022-12-09T03:09:04.701Z,91.20
2022-12-09T03:11:33.891Z,90.82
2022-12-09T03:14:07.961Z,93.82
2022-12-09T03:16:39.145Z,97.72
2022-12-09T03:19:12.184Z,91.43
2022-12-09T03:21:45.404Z,91.90
2022-12-09T03:24:16.700Z,88.15
2022-12-09T03:26:45.169Z,102.88
2022-12-09T03:29:17.949Z,98.05
2022-12-09T03:31:48.122Z,90.30
2022-12-09T03:34:19.422Z,82.07
2022-12-09T03:36:52.058Z,90.13
2022-12-09T03:41:53.264Z,83.15
2022-12-09T03:44:25.044Z,93.80
2022-12-09T03:46:55.797Z,77.93
2022-12-09T03:49:24.228Z,83.10
2022-12-09T03:52:01.695Z,81.00
2022-12-09T03:54:34.027Z,87.32
2022-12-09T03:57:03.576Z,90.28
2022-12-09T03:59:35.847Z,85.38
2022-12-09T04:02:07.648Z,83.40
2022-12-09T04:04:39.586Z,81.15
2022-12-09T04:07:10.299Z,80.78
2022-12-09T04:09:42.562Z,80.80
2022-12-09T04:12:11.098Z,75.97
2022-12-09T04:14:40.193Z,80.00
2022-12-09T04:17:08.498Z,80.70
2022-12-09T04:19:36.991Z,87.15
2022-12-09T04:22:06.159Z,85.93
2022-12-09T04:24:35.691Z,78.10
2022-12-09T04:27:03.773Z,88.97
2022-12-09T04:29:34.249Z,84.43
2022-12-09T04:32:02.370Z,80.13
2022-12-09T04:34:33.998Z,89.47
2022-12-09T04:37:02.381Z,84.00
2022-12-09T04:39:31.416Z,89.97
2022-12-09T04:42:01.240Z,91.82
2022-12-09T04:44:31.646Z,91.50
2022-12-09T04:46:59.707Z,84.05
2022-12-09T04:49:28.202Z,83.80
2022-12-09T04:51:56.389Z,91.90
2022-12-09T04:54:24.769Z,82.28
2022-12-09T04:56:52.882Z,86.47
2022-12-09T04:59:22.505Z,78.82
2022-12-09T05:01:50.873Z,79.65
2022-12-09T05:04:19.143Z,81.15
2022-12-09T05:06:47.568Z,79.40
2022-12-09T05:09:16.230Z,83.45
2022-12-09T05:11:44.393Z,86.80
2022-12-09T05:14:12.526Z,83.68
2022-12-09T05:16:42.266Z,82.20
2022-12-09T05:19:11.448Z,81.20
2022-12-09T05:21:40.023Z,79.32
2022-12-09T05:24:10.688Z,73.82
2022-12-09T05:26:41.730Z,77.13
2022-12-09T05:29:09.894Z,72.07
2022-12-09T05:31:38.409Z,79.18
2022-12-09T05:34:07.960Z,78.07
2022-12-09T05:36:36.552Z,81.03
2022-12-09T05:39:05.572Z,78.55
2022-12-09T05:41:34.378Z,79.32
2022-12-09T05:44:02.835Z,82.82
2022-12-09T05:46:31.317Z,72.40
2022-12-09T05:49:00.187Z,83.20
2022-12-09T05:51:31.249Z,81.32
2022-12-09T05:54:02.819Z,75.03
2022-12-09T05:56:31.782Z,78.38
2022-12-09T05:59:00.799Z,79.80
2022-12-09T06:01:29.374Z,79.10
2022-12-09T06:03:58.013Z,76.75
2022-12-09T06:06:30.100Z,87.13
2022-12-09T06:09:02.084Z,90.47
2022-12-09T06:11:32.322Z,82.45
2022-12-09T06:14:00.896Z,84.93
2022-12-09T06:16:29.346Z,91.65
2022-12-09T06:18:58.409Z,81.60
2022-12-09T06:21:26.815Z,86.85
2022-12-09T06:23:55.061Z,79.40
2022-12-09T06:26:27.569Z,80.90
2022-12-09T06:28:56.897Z,85.80
2022-12-09T06:31:25.845Z,86.28
2022-12-09T06:33:58.575Z,80.10
2022-12-09T06:36:28.091Z,80.55
2022-12-09T06:38:57.920Z,79.68
2022-12-09T06:41:28.819Z,73.78
2022-12-09T06:43:58.898Z,75.68
2022-12-09T06:46:28.474Z,79.47
2022-12-09T06:48:57.716Z,78.90
2022-12-09T06:51:27.410Z,78.90
2022-12-09T06:53:56.061Z,81.20
2022-12-09T06:56:25.504Z,77.15
2022-12-09T06:58:55.424Z,77.07
2022-12-09T07:01:26.074Z,74.53
2022-12-09T07:03:56.775Z,83.00
2022-12-09T07:06:29.646Z,72.53
2022-12-09T07:09:01.031Z,75.57
2022-12-09T07:11:30.165Z,76.78
2022-12-09T07:14:00.438Z,74.85
2022-12-09T07:16:29.514Z,80.45
2022-12-09T07:18:58.533Z,84.43
2022-12-09T07:21:27.500Z,76.70
2022-12-09T07:23:56.595Z,80.10
2022-12-09T07:26:25.069Z,76.82
2022-12-09T07:28:53.747Z,81.57
2022-12-09T07:31:25.715Z,80.03
2022-12-09T07:33:57.720Z,85.70
2022-12-09T07:36:28.770Z,82.97
2022-12-09T07:38:57.340Z,85.22
2022-12-09T07:41:26.633Z,89.78
2022-12-09T07:43:55.259Z,92.80
2022-12-09T07:46:27.567Z,91.93
2022-12-09T07:48:57.392Z,90.18
2022-12-09T07:51:26.824Z,87.68
2022-12-09T07:53:57.072Z,107.05
2022-12-09T07:56:27.665Z,104.38
2022-12-09T07:58:57.304Z,98.78
2022-12-09T08:01:30.295Z,89.15
2022-12-09T08:04:00.439Z,100.25
2022-12-09T08:06:31.191Z,86.75
2022-12-09T08:09:00.686Z,99.85
2022-12-09T08:11:31.053Z,94.88
2022-12-09T08:14:04.353Z,96.15
2022-12-09T08:16:36.935Z,91.22
2022-12-09T08:19:06.082Z,117.47
2022-12-09T08:21:34.597Z,99.47
2022-12-09T08:24:07.829Z,90.72
2022-12-09T08:26:37.605Z,102.60
2022-12-09T08:29:09.418Z,88.93
2022-12-09T08:31:42.329Z,97.65
2022-12-09T08:36:39.973Z,115.13
2022-12-09T08:39:10.907Z,110.13
2022-12-09T08:41:40.270Z,113.10
2022-12-09T08:44:10.393Z,110.15
2022-12-09T08:46:42.738Z,130.07
2022-12-09T08:49:11.860Z,123.35
2022-12-09T08:51:40.729Z,127.50
2022-12-09T08:54:09.234Z,192.82
2022-12-09T08:56:37.542Z,147.23
2022-12-09T08:59:06.104Z,126.88
2022-12-09T09:01:35.887Z,114.65
2022-12-09T09:04:09.185Z,129.63
2022-12-09T09:06:38.594Z,158.07
2022-12-09T09:09:07.933Z,110.90
2022-12-09T09:11:36.660Z,132.60
2022-12-09T09:14:09.463Z,135.60
2022-12-09T09:16:40.828Z,114.65
2022-12-09T09:19:14.923Z,119.65
2022-12-09T09:21:43.319Z,124.97
2022-12-09T09:24:12.900Z,115.20
2022-12-09T09:26:44.987Z,146.32
2022-12-09T09:29:14.447Z,123.38
2022-12-09T09:31:43.946Z,114.28
2022-12-09T09:34:14.074Z,112.57
2022-12-09T09:36:42.387Z,105.82
2022-12-09T09:39:11.855Z,117.32
2022-12-09T09:41:48.801Z,119.72
2022-12-09T09:44:23.143Z,108.25
2022-12-09T09:46:53.488Z,128.73
2022-12-09T09:49:31.756Z,118.03
2022-12-09T09:52:05.276Z,115.78
2022-12-09T09:54:33.861Z,114.28
2022-12-09T09:57:12.064Z,111.25
2022-12-09T09:59:51.559Z,98.07
2022-12-09T10:02:26.410Z,109.38
2022-12-09T10:05:06.916Z,104.75
2022-12-09T10:07:41.367Z,95.40
2022-12-09T10:13:06.073Z,103.03
2022-12-09T10:15:46.307Z,94.88
2022-12-09T10:18:19.172Z,106.90
2022-12-09T10:20:49.633Z,91.07
2022-12-09T10:23:19.169Z,95.93
2022-12-09T10:25:54.139Z,159.30
2022-12-09T10:28:25.399Z,123.57
2022-12-09T10:30:56.406Z,75.28
2022-12-09T10:33:34.393Z,87.35
2022-12-09T10:36:05.838Z,84.40
2022-12-09T10:38:41.161Z,95.78
2022-12-09T10:41:38.877Z,111.85
2022-12-09T10:44:19.815Z,93.85
2022-12-09T10:46:48.680Z,88.65
2022-12-09T10:49:21.898Z,105.45
2022-12-09T10:51:53.987Z,99.40
2022-12-09T10:54:31.666Z,109.03
2022-12-09T10:57:06.494Z,97.72
2022-12-09T10:59:36.628Z,93.03
2022-12-09T11:02:20.236Z,92.95
2022-12-09T11:04:49.249Z,94.63
2022-12-09T11:07:22.898Z,89.80
2022-12-09T11:09:55.676Z,95.32
2022-12-09T11:12:40.089Z,88.30
2022-12-09T11:15:27.214Z,112.33
2022-12-09T11:17:58.554Z,100.00
2022-12-09T11:20:29.399Z,94.50
2022-12-09T11:23:05.413Z,95.32
2022-12-09T11:25:36.110Z,104.35
2022-12-09T11:28:06.707Z,112.25
2022-12-09T11:30:57.572Z,134.52
2022-12-09T11:33:31.762Z,114.00
2022-12-09T11:36:04.138Z,94.72
2022-12-09T11:38:39.164Z,95.40
2022-12-09T11:41:40.709Z,95.25
2022-12-09T11:44:22.197Z,98.18
2022-12-09T11:46:58.135Z,189.82
2022-12-09T11:49:28.275Z,87.45
2022-12-09T11:52:21.173Z,85.45
2022-12-09T11:54:57.345Z,79.60
2022-12-09T11:57:34.125Z,67.28
2022-12-09T12:00:05.936Z,68.32
2022-12-09T12:02:41.396Z,73.30
2022-12-09T12:05:22.031Z,63.67
2022-12-09T12:07:57.938Z,63.40
2022-12-09T12:10:30.742Z,64.10
2022-12-09T12:15:40.404Z,61.72
2022-12-09T12:18:15.391Z,58.45
2022-12-09T12:20:58.094Z,59.92
2022-12-09T12:23:44.854Z,55.03
2022-12-09T12:26:20.263Z,60.17
2022-12-09T12:29:20.330Z,63.35
2022-12-09T12:32:08.281Z,65.90
2022-12-09T12:34:43.470Z,62.05
2022-12-09T12:37:25.295Z,50.78
2022-12-09T12:40:01.976Z,54.13
2022-12-09T12:43:03.737Z,46.72
2022-12-09T12:45:58.620Z,90.97
2022-12-09T12:48:34.218Z,55.92
2022-12-09T12:51:15.934Z,169.80
2022-12-09T12:53:52.677Z,84.13
2022-12-09T12:56:25.463Z,50.97
2022-12-09T13:01:32.258Z,49.47
2022-12-09T13:04:16.913Z,53.40
2022-12-09T13:06:50.651Z,67.43
2022-12-09T13:09:25.658Z,62.42
2022-12-09T13:12:06.579Z,73.38
2022-12-09T13:14:52.279Z,64.72
2022-12-09T13:17:23.575Z,101.35
2022-12-09T13:19:55.415Z,57.35
2022-12-09T13:22:28.674Z,63.23
2022-12-09T13:25:16.493Z,63.65
2022-12-09T13:27:51.096Z,124.50
2022-12-09T13:30:23.331Z,53.45
2022-12-09T13:33:22.938Z,58.88
2022-12-09T13:35:56.983Z,52.10
2022-12-09T13:38:28.606Z,56.95
2022-12-09T13:40:57.243Z,72.35
2022-12-09T13:43:28.112Z,48.65
2022-12-09T13:45:59.938Z,72.63
2022-12-09T13:48:55.533Z,51.93
2022-12-09T13:51:27.549Z,52.03
2022-12-09T13:54:03.953Z,53.80
2022-12-09T13:56:34.179Z,57.63
2022-12-09T13:59:32.349Z,53.55
2022-12-09T14:02:11.853Z,56.17
2022-12-09T14:04:47.788Z,57.45
2022-12-09T14:07:23.694Z,78.10
2022-12-09T14:09:55.223Z,98.03
2022-12-09T14:13:03.617Z,61.00
2022-12-09T14:15:37.882Z,65.78
2022-12-09T14:18:30.052Z,104.30
2022-12-09T14:21:30.296Z,95.17
2022-12-09T14:24:35.446Z,65.55
2022-12-09T14:27:16.147Z,58.78
2022-12-09T14:29:53.136Z,52.25
2022-12-09T14:32:30.348Z,56.30
2022-12-09T14:35:07.266Z,54.20
2022-12-09T14:37:54.939Z,63.83
2022-12-09T14:40:33.358Z,57.50
2022-12-09T14:43:15.169Z,60.25
2022-12-09T14:45:50.174Z,57.90
2022-12-09T14:48:25.961Z,66.05
2022-12-09T14:51:16.725Z,71.72
2022-12-09T14:53:49.363Z,65.63
2022-12-09T14:58:50.191Z,68.78
2022-12-09T15:01:19.241Z,71.35
2022-12-09T15:03:55.740Z,88.93
2022-12-09T15:06:26.999Z,113.57
2022-12-09T15:08:58.193Z,80.15
2022-12-09T15:11:31.641Z,80.60
2022-12-09T15:14:24.442Z,85.40
2022-12-09T15:16:53.400Z,97.72
2022-12-09T15:19:58.708Z,97.47
2022-12-09T15:22:22.749Z,104.53
2022-12-09T15:24:54.783Z,196.75
2022-12-09T15:27:24.960Z,119.10
2022-12-09T15:29:56.229Z,104.25
2022-12-09T15:32:27.145Z,122.50
2022-12-09T15:34:55.690Z,158.65
2022-12-09T15:37:29.104Z,191.25
2022-12-09T15:40:02.109Z,97.10
2022-12-09T15:42:34.335Z,90.95
2022-12-09T15:45:07.799Z,89.15
2022-12-09T15:47:41.368Z,98.82
2022-12-09T15:50:18.248Z,78.75
2022-12-09T15:52:51.502Z,95.90
2022-12-09T15:55:25.779Z,133.68
2022-12-09T15:57:57.091Z,148.85
2022-12-09T16:00:25.810Z,127.40
2022-12-09T16:02:54.638Z,128.48
2022-12-09T16:05:25.568Z,75.40
2022-12-09T16:07:57.510Z,71.50
2022-12-09T16:10:27.066Z,78.10
2022-12-09T16:13:10.165Z,78.95
2022-12-09T16:15:47.815Z,91.72
2022-12-09T16:18:22.597Z,86.35
2022-12-09T16:21:21.125Z,107.40
2022-12-09T16:23:53.840Z,83.15
2022-12-09T16:29:01.830Z,67.55
2022-12-09T16:31:30.712Z,80.65
2022-12-09T16:33:59.509Z,78.03
2022-12-09T16:36:30.928Z,94.30
2022-12-09T16:39:34.335Z,80.25
2022-12-09T16:42:03.491Z,90.15
2022-12-09T16:44:35.136Z,83.32
2022-12-09T16:47:14.959Z,98.40
2022-12-09T16:49:46.481Z,197.32
2022-12-09T16:52:16.727Z,97.90
2022-12-09T16:54:49.570Z,102.53
2022-12-09T16:57:21.223Z,135.43
2022-12-09T16:59:51.047Z,107.40
2022-12-09T17:02:27.702Z,86.63
2022-12-09T17:04:56.035Z,79.82
2022-12-09T17:07:26.646Z,117.20
2022-12-09T17:09:58.458Z,84.63
2022-12-09T17:12:26.993Z,114.97
2022-12-09T17:14:55.343Z,142.02
2022-12-09T17:17:23.795Z,98.90
2022-12-09T17:19:52.551Z,72.05
2022-12-09T17:22:20.920Z,80.38
2022-12-09T17:24:49.120Z,155.88
2022-12-09T17:27:18.811Z,82.05
2022-12-09T17:29:49.263Z,87.78
2022-12-09T17:32:17.589Z,121.43
2022-12-09T17:34:45.828Z,88.70
2022-12-09T17:37:14.089Z,72.50
2022-12-09T17:39:42.406Z,118.97
2022-12-09T17:42:12.890Z,117.40
2022-12-09T17:44:42.493Z,84.18
2022-12-09T17:47:10.925Z,95.75
2022-12-09T17:49:39.133Z,82.93
2022-12-09T17:52:07.777Z,83.13
2022-12-09T17:54:36.195Z,80.68
2022-12-09T17:57:05.135Z,78.40
2022-12-09T17:59:33.612Z,81.93
2022-12-09T18:02:03.671Z,107.97
2022-12-09T18:04:34.177Z,81.65
2022-12-09T18:07:02.310Z,126.15
2022-12-09T18:09:32.585Z,93.68
2022-12-09T18:12:00.901Z,79.90
2022-12-09T18:14:29.294Z,71.68
2022-12-09T18:16:57.815Z,87.45
2022-12-09T18:19:28.420Z,92.75
2022-12-09T18:21:57.286Z,76.18
2022-12-09T18:24:25.558Z,142.80
2022-12-09T18:26:53.809Z,120.43
2022-12-09T18:29:22.110Z,72.82
2022-12-09T18:31:55.596Z,88.75
2022-12-09T18:34:24.020Z,85.65
2022-12-09T18:36:53.599Z,59.15
2022-12-09T18:39:21.969Z,75.88
2022-12-09T18:41:50.064Z,96.25
2022-12-09T18:44:20.513Z,64.57
2022-12-09T18:46:51.110Z,89.95
2022-12-09T18:49:21.395Z,65.43
2022-12-09T18:51:51.233Z,72.38
2022-12-09T18:54:23.921Z,109.90
2022-12-09T18:59:22.256Z,90.50
2022-12-09T19:01:51.227Z,83.75
2022-12-09T19:04:21.386Z,80.30
2022-12-09T19:06:51.480Z,79.90
2022-12-09T19:09:25.115Z,80.95
2022-12-09T19:11:54.176Z,62.67
2022-12-09T19:14:24.943Z,82.85
2022-12-09T19:16:54.120Z,81.32
2022-12-09T19:19:24.862Z,94.75
2022-12-09T19:21:54.536Z,74.70
2022-12-09T19:24:26.908Z,68.15
2022-12-09T19:26:57.707Z,73.40
2022-12-09T19:29:28.199Z,74.35
2022-12-09T19:31:58.578Z,80.13
2022-12-09T19:34:29.098Z,64.03
2022-12-09T19:36:59.492Z,81.20
2022-12-09T19:39:31.424Z,72.40
2022-12-09T19:42:00.250Z,77.37
2022-12-09T19:44:59.405Z,74.88
2022-12-09T19:47:18.830Z,71.13
2022-12-09T19:49:47.412Z,66.93
2022-12-09T19:52:16.530Z,75.45
2022-12-09T19:54:48.273Z,62.20
2022-12-09T19:57:16.438Z,70.87
2022-12-09T19:59:44.956Z,62.75
2022-12-09T20:02:13.981Z,83.32
2022-12-09T20:04:50.802Z,68.75
2022-12-09T20:07:19.846Z,94.88
2022-12-09T20:09:49.926Z,88.32
2022-12-09T20:12:18.417Z,69.07
2022-12-09T20:14:46.658Z,85.40
2022-12-09T20:17:17.649Z,92.43
2022-12-09T20:19:46.112Z,70.88
2022-12-09T20:22:14.236Z,70.57
2022-12-09T20:24:43.184Z,67.28
2022-12-09T20:27:12.888Z,66.70
2022-12-09T20:29:44.303Z,67.28
2022-12-09T20:32:12.798Z,64.68
2022-12-09T20:34:43.706Z,65.65
2022-12-09T20:37:12.045Z,67.70
2022-12-09T20:39:40.399Z,58.38
2022-12-09T20:42:08.620Z,63.70
2022-12-09T20:44:38.218Z,60.30
2022-12-09T20:47:06.522Z,62.67
2022-12-09T20:49:34.718Z,59.92
2022-12-09T20:52:02.900Z,60.15
2022-12-09T20:54:31.138Z,59.60
2022-12-09T20:56:59.409Z,56.60
2022-12-09T20:59:27.659Z,66.63
2022-12-09T21:01:57.169Z,69.30
2022-12-09T21:04:25.585Z,65.50
2022-12-09T21:06:53.886Z,66.93
2022-12-09T21:09:25.700Z,64.60
2022-12-09T21:11:56.984Z,57.30
2022-12-09T21:14:32.452Z,74.05
2022-12-09T21:17:03.167Z,51.17
2022-12-09T21:19:32.408Z,60.28
2022-12-09T21:22:02.346Z,59.95
2022-12-09T21:24:30.491Z,65.57
2022-12-09T21:26:58.685Z,60.63
2022-12-09T21:29:31.560Z,62.85
2022-12-09T21:32:00.676Z,57.55
2022-12-09T21:34:30.420Z,63.03
2022-12-09T21:36:58.687Z,54.05
2022-12-09T21:39:27.974Z,54.85
2022-12-09T21:41:56.192Z,60.08
2022-12-09T21:44:25.437Z,56.20
2022-12-09T21:46:53.719Z,62.47
2022-12-09T21:49:21.888Z,57.50
2022-12-09T21:51:53.733Z,54.85
2022-12-09T21:54:22.015Z,62.88
2022-12-09T21:56:50.230Z,56.35
2022-12-09T21:59:19.036Z,56.42
2022-12-09T22:01:47.727Z,62.13
2022-12-09T22:04:17.792Z,60.22
2022-12-09T22:06:48.143Z,58.90
2022-12-09T22:09:20.964Z,61.35
2022-12-09T22:14:17.785Z,61.22
2022-12-09T22:16:48.365Z,66.63
2022-12-09T22:19:19.330Z,57.13
2022-12-09T22:21:47.929Z,53.22
2022-12-09T22:24:20.085Z,60.45
2022-12-09T22:26:48.460Z,57.33
2022-12-09T22:29:18.186Z,62.45
2022-12-09T22:31:47.203Z,70.60
2022-12-09T22:34:17.121Z,76.47
2022-12-09T22:36:45.625Z,64.13
2022-12-09T22:39:15.555Z,61.83
2022-12-09T22:41:46.069Z,68.63
2022-12-09T22:44:17.230Z,58.78
2022-12-09T22:46:45.854Z,64.57
2022-12-09T22:49:15.326Z,83.00
2022-12-09T22:51:43.931Z,70.03
2022-12-09T22:54:12.802Z,58.17
2022-12-09T22:56:43.207Z,107.55
2022-12-09T22:59:14.441Z,67.95
2022-12-09T23:01:45.922Z,95.93
2022-12-09T23:04:15.753Z,69.30
2022-12-09T23:06:44.121Z,56.78
2022-12-09T23:09:16.363Z,72.03
2022-12-09T23:11:44.494Z,57.95
2022-12-09T23:14:15.146Z,69.03
2022-12-09T23:16:45.715Z,72.38
2022-12-09T23:19:14.609Z,74.18
2022-12-09T23:21:44.190Z,54.58
2022-12-09T23:24:15.700Z,74.53
2022-12-09T23:26:46.635Z,52.90
2022-12-09T23:29:17.223Z,98.57
2022-12-09T23:31:45.537Z,70.10
2022-12-09T23:34:15.357Z,83.82
2022-12-09T23:36:45.380Z,81.22
2022-12-09T23:39:15.579Z,91.55
2022-12-09T23:41:45.163Z,63.25
2022-12-09T23:44:19.437Z,59.03
2022-12-09T23:46:47.794Z,52.33
2022-12-09T23:49:16.336Z,62.28
2022-12-09T23:51:44.861Z,55.47
2022-12-09T23:54:14.442Z,51.13
2022-12-09T23:56:48.017Z,54.00
2022-12-09T23:59:18.837Z,57.15
